sensor_id;sensor_type;location;lat;lon;timestamp;pressure;altitude;pressure_sealevel;temperature;humidity
84283;BME280;74440;52.600;21.450;2024-01-11T00:03:33;102400;;;-3.64;81
84283;BME280;74440;52.600;21.450;2024-01-11T00:07:34;102400;;;-3.76;81
84283;BME280;74440;52.600;21.450;2024-01-11T00:11:36;102400;;;-3.78;81
84283;BME280;74440;52.600;21.450;2024-01-11T00:15:38;102400;;;-3.74;81
84283;BME280;74440;52.600;21.450;2024-01-11T00:19:39;102400;;;-3.71;81
84283;BME280;74440;52.600;21.450;2024-01-11T00:23:57;102300;;;-3.67;82
84283;BME280;74440;52.600;21.450;2024-01-11T00:27:58;102400;;;-3.77;81
84283;BME280;74440;52.600;21.450;2024-01-11T00:32:00;102400;;;-3.75;81
84283;BME280;74440;52.600;21.450;2024-01-11T00:36:01;102300;;;-3.78;81
84283;BME280;74440;52.600;21.450;2024-01-11T00:40:03;102300;;;-3.73;81
84283;BME280;74440;52.600;21.450;2024-01-11T00:44:06;102300;;;-3.83;82
84283;BME280;74440;52.600;21.450;2024-01-11T00:48:08;102300;;;-3.85;81
84283;BME280;74440;52.600;21.450;2024-01-11T00:52:10;102300;;;-3.83;81
84283;BME280;74440;52.600;21.450;2024-01-11T00:56:18;102300;;;-3.77;81
84283;BME280;74440;52.600;21.450;2024-01-11T01:00:27;102300;;;-3.77;82
84283;BME280;74440;52.600;21.450;2024-01-11T01:04:28;102300;;;-3.83;82
84283;BME280;74440;52.600;21.450;2024-01-11T01:08:30;102300;;;-3.78;81
84283;BME280;74440;52.600;21.450;2024-01-11T01:12:32;102300;;;-3.76;81
84283;BME280;74440;52.600;21.450;2024-01-11T01:16:33;102300;;;-3.74;81
84283;BME280;74440;52.600;21.450;2024-01-11T01:20:35;102400;;;-3.89;81
84283;BME280;74440;52.600;21.450;2024-01-11T01:24:39;102400;;;-3.91;81
84283;BME280;74440;52.600;21.450;2024-01-11T01:28:40;102300;;;-3.89;81
84283;BME280;74440;52.600;21.450;2024-01-11T01:32:42;102300;;;-3.82;81
84283;BME280;74440;52.600;21.450;2024-01-11T01:36:57;102300;;;-3.84;81
84283;BME280;74440;52.600;21.450;2024-01-11T01:40:58;102300;;;-3.93;81
84283;BME280;74440;52.600;21.450;2024-01-11T01:45:00;102300;;;-3.92;81
84283;BME280;74440;52.600;21.450;2024-01-11T01:49:02;102300;;;-3.90;81
84283;BME280;74440;52.600;21.450;2024-01-11T01:53:05;102300;;;-3.84;81
84283;BME280;74440;52.600;21.450;2024-01-11T01:57:07;102300;;;-3.96;81
84283;BME280;74440;52.600;21.450;2024-01-11T02:01:12;102300;;;-3.91;81
84283;BME280;74440;52.600;21.450;2024-01-11T02:05:16;102300;;;-3.86;81
84283;BME280;74440;52.600;21.450;2024-01-11T02:09:18;102300;;;-3.82;81
84283;BME280;74440;52.600;21.450;2024-01-11T02:13:27;102300;;;-3.80;81
84283;BME280;74440;52.600;21.450;2024-01-11T02:17:30;102300;;;-3.86;81
84283;BME280;74440;52.600;21.450;2024-01-11T02:21:33;102300;;;-3.80;81
84283;BME280;74440;52.600;21.450;2024-01-11T02:25:35;102300;;;-3.71;81
84283;BME280;74440;52.600;21.450;2024-01-11T02:29:37;102300;;;-3.66;81
84283;BME280;74440;52.600;21.450;2024-01-11T02:33:39;102300;;;-3.77;81
84283;BME280;74440;52.600;21.450;2024-01-11T02:37:41;102300;;;-3.73;81
84283;BME280;74440;52.600;21.450;2024-01-11T02:41:43;102300;;;-3.68;81
84283;BME280;74440;52.600;21.450;2024-01-11T02:45:45;102300;;;-3.61;81
84283;BME280;74440;52.600;21.450;2024-01-11T02:49:57;102300;;;-3.56;81
84283;BME280;74440;52.600;21.450;2024-01-11T02:53:59;102300;;;-3.65;81
84283;BME280;74440;52.600;21.450;2024-01-11T02:58:00;102200;;;-3.62;81
84283;BME280;74440;52.600;21.450;2024-01-11T03:02:02;102200;;;-3.57;81
84283;BME280;74440;52.600;21.450;2024-01-11T03:06:04;102200;;;-3.52;81
84283;BME280;74440;52.600;21.450;2024-01-11T03:10:05;102200;;;-3.62;81
84283;BME280;74440;52.600;21.450;2024-01-11T03:14:07;102200;;;-3.61;81
84283;BME280;74440;52.600;21.450;2024-01-11T03:18:09;102200;;;-3.58;81
84283;BME280;74440;52.600;21.450;2024-01-11T03:22:12;102200;;;-3.53;81
84283;BME280;74440;52.600;21.450;2024-01-11T03:26:27;102200;;;-3.52;82
84283;BME280;74440;52.600;21.450;2024-01-11T03:30:28;102200;;;-3.60;81
84283;BME280;74440;52.600;21.450;2024-01-11T03:34:30;102200;;;-3.56;81
84283;BME280;74440;52.600;21.450;2024-01-11T03:38:31;102200;;;-3.49;81
84283;BME280;74440;52.600;21.450;2024-01-11T03:42:33;102200;;;-3.44;81
84283;BME280;74440;52.600;21.450;2024-01-11T03:46:34;102200;;;-3.58;81
84283;BME280;74440;52.600;21.450;2024-01-11T03:50:36;102200;;;-3.54;81
84283;BME280;74440;52.600;21.450;2024-01-11T03:54:37;102200;;;-3.51;81
84283;BME280;74440;52.600;21.450;2024-01-11T03:58:39;102200;;;-3.44;82
84283;BME280;74440;52.600;21.450;2024-01-11T04:02:57;102200;;;-3.40;82
84283;BME280;74440;52.600;21.450;2024-01-11T04:06:59;102200;;;-3.50;82
84283;BME280;74440;52.600;21.450;2024-01-11T04:11:03;102200;;;-3.46;82
84283;BME280;74440;52.600;21.450;2024-01-11T04:15:08;102200;;;-3.41;82
84283;BME280;74440;52.600;21.450;2024-01-11T04:19:10;102200;;;-3.37;82
84283;BME280;74440;52.600;21.450;2024-01-11T04:23:12;102200;;;-3.44;82
84283;BME280;74440;52.600;21.450;2024-01-11T04:27:13;102100;;;-3.39;82
84283;BME280;74440;52.600;21.450;2024-01-11T04:31:15;102100;;;-3.31;82
84283;BME280;74440;52.600;21.450;2024-01-11T04:35:19;102100;;;-3.25;82
84283;BME280;74440;52.600;21.450;2024-01-11T04:39:28;102100;;;-3.20;82
84283;BME280;74440;52.600;21.450;2024-01-11T04:43:29;102100;;;-3.31;82
84283;BME280;74440;52.600;21.450;2024-01-11T04:47:31;102100;;;-3.25;82
84283;BME280;74440;52.600;21.450;2024-01-11T04:51:33;102100;;;-3.21;82
84283;BME280;74440;52.600;21.450;2024-01-11T04:55:35;102100;;;-3.16;82
84283;BME280;74440;52.600;21.450;2024-01-11T04:59:36;102100;;;-3.28;82
84283;BME280;74440;52.600;21.450;2024-01-11T05:03:38;102100;;;-3.25;82
84283;BME280;74440;52.600;21.450;2024-01-11T05:07:39;102100;;;-3.23;82
84283;BME280;74440;52.600;21.450;2024-01-11T05:11:41;102100;;;-3.17;82
84283;BME280;74440;52.600;21.450;2024-01-11T05:15:58;102100;;;-3.17;82
84283;BME280;74440;52.600;21.450;2024-01-11T05:19:59;102100;;;-3.29;82
84283;BME280;74440;52.600;21.450;2024-01-11T05:24:01;102100;;;-3.28;82
84283;BME280;74440;52.600;21.450;2024-01-11T05:28:03;102100;;;-3.21;82
84283;BME280;74440;52.600;21.450;2024-01-11T05:32:05;102100;;;-3.14;82
84283;BME280;74440;52.600;21.450;2024-01-11T05:36:07;102100;;;-3.22;82
84283;BME280;74440;52.600;21.450;2024-01-11T05:40:09;102000;;;-3.18;82
84283;BME280;74440;52.600;21.450;2024-01-11T05:44:11;102000;;;-3.13;82
84283;BME280;74440;52.600;21.450;2024-01-11T05:48:12;102000;;;-3.05;82
84283;BME280;74440;52.600;21.450;2024-01-11T05:52:28;102000;;;-3.06;82
84283;BME280;74440;52.600;21.450;2024-01-11T05:56:30;102000;;;-3.15;82
84283;BME280;74440;52.600;21.450;2024-01-11T06:00:31;102000;;;-3.09;82
84283;BME280;74440;52.600;21.450;2024-01-11T06:04:33;102000;;;-3.03;82
84283;BME280;74440;52.600;21.450;2024-01-11T06:08:35;102000;;;-2.95;82
84283;BME280;74440;52.600;21.450;2024-01-11T06:12:36;102000;;;-3.04;82
84283;BME280;74440;52.600;21.450;2024-01-11T06:16:38;102000;;;-3.00;82
84283;BME280;74440;52.600;21.450;2024-01-11T06:20:41;102000;;;-2.95;82
84283;BME280;74440;52.600;21.450;2024-01-11T06:24:43;102000;;;-2.88;82
84283;BME280;74440;52.600;21.450;2024-01-11T06:28:58;102000;;;-2.84;83
84283;BME280;74440;52.600;21.450;2024-01-11T06:32:59;102000;;;-2.90;83
84283;BME280;74440;52.600;21.450;2024-01-11T06:37:01;102000;;;-2.83;83
84283;BME280;74440;52.600;21.450;2024-01-11T06:41:04;102000;;;-2.77;83
84283;BME280;74440;52.600;21.450;2024-01-11T06:45:06;102000;;;-2.70;83
84283;BME280;74440;52.600;21.450;2024-01-11T06:49:09;102000;;;-2.80;83
84283;BME280;74440;52.600;21.450;2024-01-11T06:53:10;102000;;;-2.75;83
84283;BME280;74440;52.600;21.450;2024-01-11T06:57:12;102000;;;-2.70;83
84283;BME280;74440;52.600;21.450;2024-01-11T07:01:14;102000;;;-2.64;83
84283;BME280;74440;52.600;21.450;2024-01-11T07:05:28;102000;;;-2.64;83
84283;BME280;74440;52.600;21.450;2024-01-11T07:09:30;102000;;;-2.74;83
84283;BME280;74440;52.600;21.450;2024-01-11T07:13:32;102000;;;-2.69;83
84283;BME280;74440;52.600;21.450;2024-01-11T07:17:33;102000;;;-2.67;83
84283;BME280;74440;52.600;21.450;2024-01-11T07:21:35;102000;;;-2.62;83
84283;BME280;74440;52.600;21.450;2024-01-11T07:25:37;102000;;;-2.71;83
84283;BME280;74440;52.600;21.450;2024-01-11T07:29:38;102000;;;-2.68;83
84283;BME280;74440;52.600;21.450;2024-01-11T07:33:40;102000;;;-2.66;83
84283;BME280;74440;52.600;21.450;2024-01-11T07:37:41;102000;;;-2.63;82
84283;BME280;74440;52.600;21.450;2024-01-11T07:41:58;102000;;;-2.62;83
84283;BME280;74440;52.600;21.450;2024-01-11T07:45:59;102000;;;-2.73;83
84283;BME280;74440;52.600;21.450;2024-01-11T07:50:01;102000;;;-2.68;83
84283;BME280;74440;52.600;21.450;2024-01-11T07:54:04;102000;;;-2.64;82
84283;BME280;74440;52.600;21.450;2024-01-11T07:58:06;102000;;;-2.60;83
84283;BME280;74440;52.600;21.450;2024-01-11T08:02:08;102000;;;-2.74;83
84283;BME280;74440;52.600;21.450;2024-01-11T08:06:09;102000;;;-2.67;83
84283;BME280;74440;52.600;21.450;2024-01-11T08:10:11;102000;;;-2.58;83
84283;BME280;74440;52.600;21.450;2024-01-11T08:14:12;102000;;;-2.47;83
84283;BME280;74440;52.600;21.450;2024-01-11T08:18:28;102000;;;-2.42;83
84283;BME280;74440;52.600;21.450;2024-01-11T08:22:31;102000;;;-2.50;83
84283;BME280;74440;52.600;21.450;2024-01-11T08:26:37;102000;;;-2.45;83
84283;BME280;74440;52.600;21.450;2024-01-11T08:30:38;102000;;;-2.40;83
84283;BME280;74440;52.600;21.450;2024-01-11T08:34:41;102000;;;-2.32;83
84283;BME280;74440;52.600;21.450;2024-01-11T08:38:43;102000;;;-2.40;83
84283;BME280;74440;52.600;21.450;2024-01-11T08:42:44;102000;;;-2.33;83
84283;BME280;74440;52.600;21.450;2024-01-11T08:46:46;102000;;;-2.23;83
84283;BME280;74440;52.600;21.450;2024-01-11T08:50:48;102000;;;-2.13;83
84283;BME280;74440;52.600;21.450;2024-01-11T08:54:59;102000;;;-2.06;83
84283;BME280;74440;52.600;21.450;2024-01-11T08:59:01;102000;;;-2.11;83
84283;BME280;74440;52.600;21.450;2024-01-11T09:03:06;102000;;;-2.03;83
84283;BME280;74440;52.600;21.450;2024-01-11T09:07:09;102000;;;-1.96;83
84283;BME280;74440;52.600;21.450;2024-01-11T09:11:10;102000;;;-1.87;83
84283;BME280;74440;52.600;21.450;2024-01-11T09:15:12;102000;;;-1.95;83
84283;BME280;74440;52.600;21.450;2024-01-11T09:19:13;102000;;;-1.89;83
84283;BME280;74440;52.600;21.450;2024-01-11T09:23:16;102000;;;-1.80;83
84283;BME280;74440;52.600;21.450;2024-01-11T09:27:18;102000;;;-1.71;82
84283;BME280;74440;52.600;21.450;2024-01-11T09:31:29;101900;;;-1.65;83
84283;BME280;74440;52.600;21.450;2024-01-11T09:35:31;101900;;;-1.74;83
84283;BME280;74440;52.600;21.450;2024-01-11T09:39:32;101900;;;-1.73;82
84283;BME280;74440;52.600;21.450;2024-01-11T09:43:34;101900;;;-1.72;82
84283;BME280;74440;52.600;21.450;2024-01-11T09:47:36;101900;;;-1.68;83
84283;BME280;74440;52.600;21.450;2024-01-11T09:51:39;101900;;;-1.79;83
84283;BME280;74440;52.600;21.450;2024-01-11T09:55:44;101900;;;-1.75;83
84283;BME280;74440;52.600;21.450;2024-01-11T09:59:46;101900;;;-1.73;83
84283;BME280;74440;52.600;21.450;2024-01-11T10:03:48;101900;;;-1.62;83
84283;BME280;74440;52.600;21.450;2024-01-11T10:07:59;101900;;;-1.53;83
84283;BME280;74440;52.600;21.450;2024-01-11T10:12:01;101900;;;-1.55;83
84283;BME280;74440;52.600;21.450;2024-01-11T10:16:06;101900;;;-1.43;83
84283;BME280;74440;52.600;21.450;2024-01-11T10:20:10;101900;;;-1.28;83
84283;BME280;74440;52.600;21.450;2024-01-11T10:24:17;101900;;;-1.13;83
84283;BME280;74440;52.600;21.450;2024-01-11T10:28:31;101900;;;-1.05;83
84283;BME280;74440;52.600;21.450;2024-01-11T10:32:34;101900;;;-1.06;83
84283;BME280;74440;52.600;21.450;2024-01-11T10:36:39;101900;;;-0.97;83
84283;BME280;74440;52.600;21.450;2024-01-11T10:40:42;101900;;;-0.83;83
84283;BME280;74440;52.600;21.450;2024-01-11T10:44:46;101900;;;-0.66;83
84283;BME280;74440;52.600;21.450;2024-01-11T10:49:04;101900;;;-0.57;83
84283;BME280;74440;52.600;21.450;2024-01-11T10:53:14;101900;;;-0.61;83
84283;BME280;74440;52.600;21.450;2024-01-11T10:57:18;101900;;;-0.51;83
84283;BME280;74440;52.600;21.450;2024-01-11T11:01:20;101900;;;-0.40;83
84283;BME280;74440;52.600;21.450;2024-01-11T11:05:24;101900;;;-0.27;83
84283;BME280;74440;52.600;21.450;2024-01-11T11:09:35;101900;;;-0.16;83
84283;BME280;74440;52.600;21.450;2024-01-11T11:13:37;101800;;;-0.18;83
84283;BME280;74440;52.600;21.450;2024-01-11T11:17:43;101800;;;-0.07;83
84283;BME280;74440;52.600;21.450;2024-01-11T11:21:48;101800;;;0.08;83
84283;BME280;74440;52.600;21.450;2024-01-11T11:25:54;101800;;;0.22;83
84283;BME280;74440;52.600;21.450;2024-01-11T11:30:09;101800;;;0.30;83
84283;BME280;74440;52.600;21.450;2024-01-11T11:34:12;101800;;;0.20;83
84283;BME280;74440;52.600;21.450;2024-01-11T11:38:20;101800;;;0.29;83
84283;BME280;74440;52.600;21.450;2024-01-11T11:42:22;101800;;;0.39;83
84283;BME280;74440;52.600;21.450;2024-01-11T11:46:25;101800;;;0.47;83
84283;BME280;74440;52.600;21.450;2024-01-11T11:50:39;101800;;;0.57;83
84283;BME280;74440;52.600;21.450;2024-01-11T11:54:41;101800;;;0.52;83
84283;BME280;74440;52.600;21.450;2024-01-11T11:58:45;101800;;;0.55;83
84283;BME280;74440;52.600;21.450;2024-01-11T12:02:47;101800;;;0.64;83
84283;BME280;74440;52.600;21.450;2024-01-11T12:06:49;101800;;;0.73;83
84283;BME280;74440;52.600;21.450;2024-01-11T12:10:52;101800;;;0.63;83
84283;BME280;74440;52.600;21.450;2024-01-11T12:14:53;101800;;;0.68;83
84283;BME280;74440;52.600;21.450;2024-01-11T12:18:55;101800;;;0.73;83
84283;BME280;74440;52.600;21.450;2024-01-11T12:22:58;101800;;;0.79;82
84283;BME280;74440;52.600;21.450;2024-01-11T12:27:08;101800;;;0.81;83
84283;BME280;74440;52.600;21.450;2024-01-11T12:31:10;101800;;;0.70;83
84283;BME280;74440;52.600;21.450;2024-01-11T12:35:12;101800;;;0.73;83
84283;BME280;74440;52.600;21.450;2024-01-11T12:39:13;101800;;;0.78;83
84283;BME280;74440;52.600;21.450;2024-01-11T12:43:16;101800;;;0.86;83
84283;BME280;74440;52.600;21.450;2024-01-11T12:47:18;101800;;;0.76;83
84283;BME280;74440;52.600;21.450;2024-01-11T12:51:20;101800;;;0.82;83
84283;BME280;74440;52.600;21.450;2024-01-11T12:55:22;101800;;;0.95;83
84283;BME280;74440;52.600;21.450;2024-01-11T12:59:30;101800;;;1.02;83
84283;BME280;74440;52.600;21.450;2024-01-11T13:05:46;101800;;;0.94;83
84283;BME280;74440;52.600;21.450;2024-01-11T13:09:56;101800;;;0.98;83
84283;BME280;74440;52.600;21.450;2024-01-11T13:13:57;101800;;;1.02;83
84283;BME280;74440;52.600;21.450;2024-01-11T13:18:07;101800;;;1.05;83
84283;BME280;74440;52.600;21.450;2024-01-11T13:22:16;101800;;;1.05;83
84283;BME280;74440;52.600;21.450;2024-01-11T13:26:17;101800;;;0.97;83
84283;BME280;74440;52.600;21.450;2024-01-11T13:30:19;101800;;;1.02;83
84283;BME280;74440;52.600;21.450;2024-01-11T13:34:21;101800;;;1.06;83
84283;BME280;74440;52.600;21.450;2024-01-11T13:38:24;101800;;;1.13;83
84283;BME280;74440;52.600;21.450;2024-01-11T13:42:25;101800;;;1.00;83
84283;BME280;74440;52.600;21.450;2024-01-11T13:46:27;101800;;;1.06;83
84283;BME280;74440;52.600;21.450;2024-01-11T13:50:29;101800;;;1.11;83
84283;BME280;74440;52.600;21.450;2024-01-11T13:54:30;101800;;;1.15;83
84283;BME280;74440;52.600;21.450;2024-01-11T13:58:46;101700;;;1.20;83
84283;BME280;74440;52.600;21.450;2024-01-11T14:02:48;101700;;;1.09;83
84283;BME280;74440;52.600;21.450;2024-01-11T14:06:49;101700;;;1.13;83
84283;BME280;74440;52.600;21.450;2024-01-11T14:10:53;101700;;;1.19;83
84283;BME280;74440;52.600;21.450;2024-01-11T14:14:55;101700;;;1.27;83
84283;BME280;74440;52.600;21.450;2024-01-11T14:18:57;101700;;;1.10;83
84283;BME280;74440;52.600;21.450;2024-01-11T14:22:59;101700;;;1.13;83
84283;BME280;74440;52.600;21.450;2024-01-11T14:27:01;101700;;;1.19;83
84283;BME280;74440;52.600;21.450;2024-01-11T14:31:03;101700;;;1.27;83
84283;BME280;74440;52.600;21.450;2024-01-11T14:35:15;101800;;;1.26;83
84283;BME280;74440;52.600;21.450;2024-01-11T14:39:18;101800;;;1.13;83
84283;BME280;74440;52.600;21.450;2024-01-11T14:43:20;101800;;;1.16;83
84283;BME280;74440;52.600;21.450;2024-01-11T14:47:22;101800;;;1.22;83
84283;BME280;74440;52.600;21.450;2024-01-11T14:51:24;101800;;;1.28;83
84283;BME280;74440;52.600;21.450;2024-01-11T14:55:47;101800;;;1.27;83
84283;BME280;74440;52.600;21.450;2024-01-11T14:59:49;101800;;;1.17;83
84283;BME280;74440;52.600;21.450;2024-01-11T15:03:50;101800;;;1.21;83
84283;BME280;74440;52.600;21.450;2024-01-11T15:07:52;101800;;;1.26;83
84283;BME280;74440;52.600;21.450;2024-01-11T15:11:56;101800;;;1.34;83
84283;BME280;74440;52.600;21.450;2024-01-11T15:15:58;101800;;;1.19;83
84283;BME280;74440;52.600;21.450;2024-01-11T15:19:59;101800;;;1.24;83
84283;BME280;74440;52.600;21.450;2024-01-11T15:24:04;101800;;;1.28;83
84283;BME280;74440;52.600;21.450;2024-01-11T15:28:06;101800;;;1.34;83
84283;BME280;74440;52.600;21.450;2024-01-11T15:32:16;101800;;;1.37;83
84283;BME280;74440;52.600;21.450;2024-01-11T15:36:18;101800;;;1.27;83
84283;BME280;74440;52.600;21.450;2024-01-11T15:40:20;101800;;;1.32;83
84283;BME280;74440;52.600;21.450;2024-01-11T15:44:22;101800;;;1.38;83
84283;BME280;74440;52.600;21.450;2024-01-11T15:48:24;101800;;;1.43;83
84283;BME280;74440;52.600;21.450;2024-01-11T15:52:26;101800;;;1.31;83
84283;BME280;74440;52.600;21.450;2024-01-11T15:56:28;101800;;;1.37;83
84283;BME280;74440;52.600;21.450;2024-01-11T16:00:30;101800;;;1.41;83
84283;BME280;74440;52.600;21.450;2024-01-11T16:04:32;101800;;;1.47;83
84283;BME280;74440;52.600;21.450;2024-01-11T16:08:46;101800;;;1.49;83
84283;BME280;74440;52.600;21.450;2024-01-11T16:12:51;101800;;;1.37;83
84283;BME280;74440;52.600;21.450;2024-01-11T16:16:53;101800;;;1.39;83
84283;BME280;74440;52.600;21.450;2024-01-11T16:20:55;101800;;;1.41;83
84283;BME280;74440;52.600;21.450;2024-01-11T16:24:59;101800;;;1.43;83
84283;BME280;74440;52.600;21.450;2024-01-11T16:29:01;101800;;;1.24;83
84283;BME280;74440;52.600;21.450;2024-01-11T16:33:03;101800;;;1.23;83
84283;BME280;74440;52.600;21.450;2024-01-11T16:37:05;101900;;;1.22;83
84283;BME280;74440;52.600;21.450;2024-01-11T16:41:07;101900;;;1.24;83
84283;BME280;74440;52.600;21.450;2024-01-11T16:45:17;101800;;;1.22;83
84283;BME280;74440;52.600;21.450;2024-01-11T16:49:20;101800;;;1.04;83
84283;BME280;74440;52.600;21.450;2024-01-11T16:53:24;101900;;;0.99;83
84283;BME280;74440;52.600;21.450;2024-01-11T16:57:25;101900;;;0.93;83
84283;BME280;74440;52.600;21.450;2024-01-11T17:01:27;101900;;;0.91;83
84283;BME280;74440;52.600;21.450;2024-01-11T17:05:29;101900;;;0.68;84
84283;BME280;74440;52.600;21.450;2024-01-11T17:09:31;101900;;;0.67;83
84283;BME280;74440;52.600;21.450;2024-01-11T17:13:33;101900;;;0.67;83
84283;BME280;74440;52.600;21.450;2024-01-11T17:17:34;101900;;;0.71;83
84283;BME280;74440;52.600;21.450;2024-01-11T17:21:47;101900;;;0.75;83
84283;BME280;74440;52.600;21.450;2024-01-11T17:25:49;101900;;;0.67;83
84283;BME280;74440;52.600;21.450;2024-01-11T17:29:50;101900;;;0.77;83
84283;BME280;74440;52.600;21.450;2024-01-11T17:33:52;101900;;;0.87;82
84283;BME280;74440;52.600;21.450;2024-01-11T17:37:54;101900;;;0.96;82
84283;BME280;74440;52.600;21.450;2024-01-11T17:41:59;101900;;;0.84;82
84283;BME280;74440;52.600;21.450;2024-01-11T17:46:02;101900;;;0.80;81
84283;BME280;74440;52.600;21.450;2024-01-11T17:50:04;101900;;;0.77;81
84283;BME280;74440;52.600;21.450;2024-01-11T17:54:06;101900;;;0.80;80
84283;BME280;74440;52.600;21.450;2024-01-11T17:58:16;101900;;;0.79;80
84283;BME280;74440;52.600;21.450;2024-01-11T18:02:19;101900;;;0.60;80
84283;BME280;74440;52.600;21.450;2024-01-11T18:06:21;101900;;;0.53;80
84283;BME280;74440;52.600;21.450;2024-01-11T18:10:26;101900;;;0.45;80
84283;BME280;74440;52.600;21.450;2024-01-11T18:14:27;101900;;;0.43;80
84283;BME280;74440;52.600;21.450;2024-01-11T18:18:29;101900;;;0.20;80
84283;BME280;74440;52.600;21.450;2024-01-11T18:22:32;101900;;;0.09;80
84283;BME280;74440;52.600;21.450;2024-01-11T18:26:33;102000;;;0.03;80
84283;BME280;74440;52.600;21.450;2024-01-11T18:30:36;101900;;;-0.02;81
84283;BME280;74440;52.600;21.450;2024-01-11T18:34:46;102000;;;-0.10;81
84283;BME280;74440;52.600;21.450;2024-01-11T18:38:48;101900;;;-0.29;81
84283;BME280;74440;52.600;21.450;2024-01-11T18:42:50;102000;;;-0.31;81
84283;BME280;74440;52.600;21.450;2024-01-11T18:46:52;102000;;;-0.33;81
84283;BME280;74440;52.600;21.450;2024-01-11T18:50:53;102000;;;-0.35;81
84283;BME280;74440;52.600;21.450;2024-01-11T18:54:55;102000;;;-0.58;81
84283;BME280;74440;52.600;21.450;2024-01-11T18:58:57;102000;;;-0.60;81
84283;BME280;74440;52.600;21.450;2024-01-11T19:02:58;102000;;;-0.63;81
84283;BME280;74440;52.600;21.450;2024-01-11T19:07:00;102000;;;-0.63;81
84283;BME280;74440;52.600;21.450;2024-01-11T19:11:15;102000;;;-0.69;82
84283;BME280;74440;52.600;21.450;2024-01-11T19:15:17;102000;;;-0.84;81
84283;BME280;74440;52.600;21.450;2024-01-11T19:19:20;102000;;;-0.82;81
84283;BME280;74440;52.600;21.450;2024-01-11T19:23:22;102000;;;-0.81;81
84283;BME280;74440;52.600;21.450;2024-01-11T19:27:28;102000;;;-0.82;81
84283;BME280;74440;52.600;21.450;2024-01-11T19:31:29;102000;;;-1.00;81
84283;BME280;74440;52.600;21.450;2024-01-11T19:35:31;102000;;;-1.02;81
84283;BME280;74440;52.600;21.450;2024-01-11T19:39:32;102100;;;-1.00;81
84283;BME280;74440;52.600;21.450;2024-01-11T19:43:35;102100;;;-1.01;81
84283;BME280;74440;52.600;21.450;2024-01-11T19:47:46;102100;;;-1.00;81
84283;BME280;74440;52.600;21.450;2024-01-11T19:51:48;102100;;;-1.15;81
84283;BME280;74440;52.600;21.450;2024-01-11T19:55:49;102100;;;-1.15;81
84283;BME280;74440;52.600;21.450;2024-01-11T19:59:51;102100;;;-1.13;80
84283;BME280;74440;52.600;21.450;2024-01-11T20:03:53;102100;;;-1.09;80
84283;BME280;74440;52.600;21.450;2024-01-11T20:07:58;102100;;;-1.29;80
84283;BME280;74440;52.600;21.450;2024-01-11T20:12:00;102100;;;-1.28;80
84283;BME280;74440;52.600;21.450;2024-01-11T20:16:01;102100;;;-1.25;80
84283;BME280;74440;52.600;21.450;2024-01-11T20:20:04;102100;;;-1.25;80
84283;BME280;74440;52.600;21.450;2024-01-11T20:24:15;102100;;;-1.28;80
84283;BME280;74440;52.600;21.450;2024-01-11T20:28:17;102100;;;-1.41;80
84283;BME280;74440;52.600;21.450;2024-01-11T20:32:20;102100;;;-1.45;80
84283;BME280;74440;52.600;21.450;2024-01-11T20:36:22;102100;;;-1.41;79
84283;BME280;74440;52.600;21.450;2024-01-11T20:40:23;102100;;;-1.40;79
84283;BME280;74440;52.600;21.450;2024-01-11T20:44:25;102100;;;-1.59;80
84283;BME280;74440;52.600;21.450;2024-01-11T20:48:27;102100;;;-1.58;79
84283;BME280;74440;52.600;21.450;2024-01-11T20:52:28;102100;;;-1.56;79
84283;BME280;74440;52.600;21.450;2024-01-11T20:56:30;102200;;;-1.42;79
84283;BME280;74440;52.600;21.450;2024-01-11T21:00:45;102200;;;-1.30;79
84283;BME280;74440;52.600;21.450;2024-01-11T21:04:46;102200;;;-1.31;80
84283;BME280;74440;52.600;21.450;2024-01-11T21:08:49;102200;;;-1.16;79
84283;BME280;74440;52.600;21.450;2024-01-11T21:12:51;102200;;;-1.00;79
84283;BME280;74440;52.600;21.450;2024-01-11T21:16:52;102200;;;-0.87;79
84283;BME280;74440;52.600;21.450;2024-01-11T21:20:54;102200;;;-0.97;78
84283;BME280;74440;52.600;21.450;2024-01-11T21:24:59;102200;;;-1.00;78
84283;BME280;74440;52.600;21.450;2024-01-11T21:29:01;102200;;;-1.00;77
84283;BME280;74440;52.600;21.450;2024-01-11T21:33:03;102200;;;-0.91;77
84283;BME280;74440;52.600;21.450;2024-01-11T21:37:15;102200;;;-0.93;77
84283;BME280;74440;52.600;21.450;2024-01-11T21:41:16;102200;;;-1.08;77
84283;BME280;74440;52.600;21.450;2024-01-11T21:45:18;102200;;;-1.21;77
84283;BME280;74440;52.600;21.450;2024-01-11T21:49:19;102200;;;-1.29;77
84283;BME280;74440;52.600;21.450;2024-01-11T21:53:21;102200;;;-1.34;78
84283;BME280;74440;52.600;21.450;2024-01-11T21:57:46;102200;;;-1.47;78
84283;BME280;74440;52.600;21.450;2024-01-11T22:01:48;102200;;;-1.70;77
84283;BME280;74440;52.600;21.450;2024-01-11T22:05:50;102300;;;-1.78;76
84283;BME280;74440;52.600;21.450;2024-01-11T22:09:52;102300;;;-1.81;76
84283;BME280;74440;52.600;21.450;2024-01-11T22:13:54;102300;;;-1.80;75
84283;BME280;74440;52.600;21.450;2024-01-11T22:17:55;102300;;;-1.95;75
84283;BME280;74440;52.600;21.450;2024-01-11T22:21:57;102300;;;-1.94;75
84283;BME280;74440;52.600;21.450;2024-01-11T22:25:58;102300;;;-1.93;74
84283;BME280;74440;52.600;21.450;2024-01-11T22:30:00;102300;;;-1.93;74
84283;BME280;74440;52.600;21.450;2024-01-11T22:34:16;102300;;;-1.92;74
84283;BME280;74440;52.600;21.450;2024-01-11T22:38:18;102300;;;-2.12;74
84283;BME280;74440;52.600;21.450;2024-01-11T22:42:19;102300;;;-2.18;74
84283;BME280;74440;52.600;21.450;2024-01-11T22:46:21;102300;;;-2.21;74
84283;BME280;74440;52.600;21.450;2024-01-11T22:50:22;102300;;;-2.24;73
84283;BME280;74440;52.600;21.450;2024-01-11T22:54:24;102300;;;-2.47;72